sensor_id;sensor_type;location;lat;lon;timestamp;pressure;altitude;pressure_sealevel;temperature;humidity
19114;BME280;9689;51.052;13.772;2023-05-01T00:00:03;100830.13;;;5.66;75.66
19114;BME280;9689;51.052;13.772;2023-05-01T00:05:05;100825.69;;;5.53;75.98
19114;BME280;9689;51.052;13.772;2023-05-01T00:10:08;100824.81;;;5.51;75.92
19114;BME280;9689;51.052;13.772;2023-05-01T00:15:09;100822.16;;;5.45;75.75
19114;BME280;9689;51.052;13.772;2023-05-01T00:20:10;100814.34;;;5.35;76.25
19114;BME280;9689;51.052;13.772;2023-05-01T00:25:13;100822.88;;;5.28;76.87
19114;BME280;9689;51.052;13.772;2023-05-01T00:30:14;100806.47;;;5.22;77.37
19114;BME280;9689;51.052;13.772;2023-05-01T00:35:15;100813.28;;;5.17;77.70
19114;BME280;9689;51.052;13.772;2023-05-01T00:40:18;100817.53;;;5.11;77.31
19114;BME280;9689;51.052;13.772;2023-05-01T00:45:19;100813.22;;;5.10;77.46
19114;BME280;9689;51.052;13.772;2023-05-01T00:50:20;100804.56;;;5.05;78.20
19114;BME280;9689;51.052;13.772;2023-05-01T00:55:22;100813.00;;;4.91;78.33
19114;BME280;9689;51.052;13.772;2023-05-01T01:00:23;100806.13;;;4.90;78.91
19114;BME280;9689;51.052;13.772;2023-05-01T01:05:26;100802.63;;;4.86;78.96
19114;BME280;9689;51.052;13.772;2023-05-01T01:10:36;100801.72;;;4.81;78.69
19114;BME280;9689;51.052;13.772;2023-05-01T01:15:43;100794.75;;;4.75;78.16
19114;BME280;9689;51.052;13.772;2023-05-01T01:20:49;100791.22;;;4.69;78.46
19114;BME280;9689;51.052;13.772;2023-05-01T01:26:03;100784.31;;;4.65;79.31
19114;BME280;9689;51.052;13.772;2023-05-01T01:31:13;100785.91;;;4.53;79.59
19114;BME280;9689;51.052;13.772;2023-05-01T01:36:24;100777.22;;;4.48;79.50
19114;BME280;9689;51.052;13.772;2023-05-01T01:41:30;100775.50;;;4.47;80.41
19114;BME280;9689;51.052;13.772;2023-05-01T01:46:36;100769.50;;;4.48;79.89
19114;BME280;9689;51.052;13.772;2023-05-01T01:51:40;100764.22;;;4.41;80.97
19114;BME280;9689;51.052;13.772;2023-05-01T01:56:42;100753.88;;;4.36;80.91
19114;BME280;9689;51.052;13.772;2023-05-01T02:01:45;100752.94;;;4.33;80.68
19114;BME280;9689;51.052;13.772;2023-05-01T02:06:49;100751.97;;;4.24;80.60
19114;BME280;9689;51.052;13.772;2023-05-01T02:11:52;100749.41;;;4.24;80.79
19114;BME280;9689;51.052;13.772;2023-05-01T02:16:55;100742.47;;;4.17;81.56
19114;BME280;9689;51.052;13.772;2023-05-01T02:21:58;100738.09;;;4.13;81.07
19114;BME280;9689;51.052;13.772;2023-05-01T02:27:03;100745.72;;;4.07;81.85
19114;BME280;9689;51.052;13.772;2023-05-01T02:32:07;100735.41;;;4.07;81.88
19114;BME280;9689;51.052;13.772;2023-05-01T02:37:10;100736.16;;;3.98;82.03
19114;BME280;9689;51.052;13.772;2023-05-01T02:42:15;100730.13;;;3.96;81.90
19114;BME280;9689;51.052;13.772;2023-05-01T02:47:19;100728.38;;;3.94;82.18
19114;BME280;9689;51.052;13.772;2023-05-01T02:52:23;100732.59;;;3.90;82.39
19114;BME280;9689;51.052;13.772;2023-05-01T02:57:34;100730.84;;;3.85;82.31
19114;BME280;9689;51.052;13.772;2023-05-01T03:02:36;100724.75;;;3.81;82.51
19114;BME280;9689;51.052;13.772;2023-05-01T03:07:38;100721.19;;;3.73;82.69
19114;BME280;9689;51.052;13.772;2023-05-01T03:12:39;100713.44;;;3.72;82.83
19114;BME280;9689;51.052;13.772;2023-05-01T03:17:40;100707.41;;;3.68;82.56
19114;BME280;9689;51.052;13.772;2023-05-01T03:22:42;100697.09;;;3.68;83.06
19114;BME280;9689;51.052;13.772;2023-05-01T03:27:43;100697.84;;;3.62;82.81
19114;BME280;9689;51.052;13.772;2023-05-01T03:32:44;100697.84;;;3.61;82.82
19114;BME280;9689;51.052;13.772;2023-05-01T03:38:00;100702.09;;;3.59;82.43
19114;BME280;9689;51.052;13.772;2023-05-01T03:43:22;100695.16;;;3.53;82.84
19114;BME280;9689;51.052;13.772;2023-05-01T03:48:24;100701.16;;;3.54;82.22
19114;BME280;9689;51.052;13.772;2023-05-01T03:53:26;100689.16;;;3.56;82.55
19114;BME280;9689;51.052;13.772;2023-05-01T03:58:28;100690.91;;;3.57;82.63
19114;BME280;9689;51.052;13.772;2023-05-01T04:03:29;100690.00;;;3.55;82.62
19114;BME280;9689;51.052;13.772;2023-05-01T04:08:31;100688.41;;;3.61;82.19
19114;BME280;9689;51.052;13.772;2023-05-01T04:13:32;100685.03;;;3.65;81.16
19114;BME280;9689;51.052;13.772;2023-05-01T04:18:33;100674.78;;;3.72;81.05
19114;BME280;9689;51.052;13.772;2023-05-01T04:23:35;100680.00;;;3.75;81.13
19114;BME280;9689;51.052;13.772;2023-05-01T04:28:36;100675.78;;;3.81;80.85
19114;BME280;9689;51.052;13.772;2023-05-01T04:33:41;100667.38;;;3.94;79.50
19114;BME280;9689;51.052;13.772;2023-05-01T04:38:43;100669.31;;;4.12;79.05
19114;BME280;9689;51.052;13.772;2023-05-01T04:43:45;100658.22;;;4.19;78.50
19114;BME280;9689;51.052;13.772;2023-05-01T04:48:49;100657.53;;;4.36;77.96
19114;BME280;9689;51.052;13.772;2023-05-01T04:53:51;100662.06;;;4.60;76.91
19114;BME280;9689;51.052;13.772;2023-05-01T04:58:55;100646.72;;;4.70;75.89
19114;BME280;9689;51.052;13.772;2023-05-01T05:03:58;100653.72;;;4.85;74.65
19114;BME280;9689;51.052;13.772;2023-05-01T05:09:01;100643.44;;;4.93;73.98
19114;BME280;9689;51.052;13.772;2023-05-01T05:14:02;100648.69;;;5.00;73.92
19114;BME280;9689;51.052;13.772;2023-05-01T05:19:03;100643.66;;;5.17;73.88
19114;BME280;9689;51.052;13.772;2023-05-01T05:24:10;100640.25;;;5.24;72.77
19114;BME280;9689;51.052;13.772;2023-05-01T05:29:10;100638.69;;;5.48;73.17
19114;BME280;9689;51.052;13.772;2023-05-01T05:34:12;100636.22;;;5.72;71.71
19114;BME280;9689;51.052;13.772;2023-05-01T05:39:14;100637.25;;;5.94;71.12
19114;BME280;9689;51.052;13.772;2023-05-01T05:44:15;100638.19;;;6.22;70.78
19114;BME280;9689;51.052;13.772;2023-05-01T05:49:16;100627.06;;;6.61;69.73
19114;BME280;9689;51.052;13.772;2023-05-01T05:54:18;100617.59;;;6.88;68.63
19114;BME280;9689;51.052;13.772;2023-05-01T05:59:20;100617.56;;;7.15;68.57
19114;BME280;9689;51.052;13.772;2023-05-01T06:04:21;100615.78;;;7.45;66.61
19114;BME280;9689;51.052;13.772;2023-05-01T06:09:23;100607.91;;;7.83;65.46
19114;BME280;9689;51.052;13.772;2023-05-01T06:14:24;100610.28;;;8.35;63.68
19114;BME280;9689;51.052;13.772;2023-05-01T06:19:25;100598.72;;;8.78;62.57
19114;BME280;9689;51.052;13.772;2023-05-01T06:24:37;100594.94;;;9.13;61.02
19114;BME280;9689;51.052;13.772;2023-05-01T06:29:40;100588.63;;;9.35;60.27
19114;BME280;9689;51.052;13.772;2023-05-01T06:34:41;100584.94;;;9.55;60.39
19114;BME280;9689;51.052;13.772;2023-05-01T06:39:43;100576.06;;;9.74;59.02
19114;BME280;9689;51.052;13.772;2023-05-01T06:44:44;100568.00;;;9.94;58.46
19114;BME280;9689;51.052;13.772;2023-05-01T06:49:45;100566.09;;;10.07;57.30
19114;BME280;9689;51.052;13.772;2023-05-01T06:54:47;100563.13;;;10.33;55.43
19114;BME280;9689;51.052;13.772;2023-05-01T06:59:48;100555.78;;;10.59;55.44
19114;BME280;9689;51.052;13.772;2023-05-01T07:04:49;100555.22;;;10.93;53.84
19114;BME280;9689;51.052;13.772;2023-05-01T07:09:51;100550.19;;;11.31;52.71
19114;BME280;9689;51.052;13.772;2023-05-01T07:14:52;100541.97;;;11.51;52.13
19114;BME280;9689;51.052;13.772;2023-05-01T07:19:53;100537.06;;;11.78;50.17
19114;BME280;9689;51.052;13.772;2023-05-01T07:24:55;100521.47;;;12.16;49.60
19114;BME280;9689;51.052;13.772;2023-05-01T07:29:56;100517.16;;;12.51;49.41
19114;BME280;9689;51.052;13.772;2023-05-01T07:34:57;100513.22;;;12.67;47.67
19114;BME280;9689;51.052;13.772;2023-05-01T07:40:00;100512.81;;;12.84;48.05
19114;BME280;9689;51.052;13.772;2023-05-01T07:45:01;100506.91;;;12.76;47.64
19114;BME280;9689;51.052;13.772;2023-05-01T07:50:02;100493.53;;;12.88;47.80
19114;BME280;9689;51.052;13.772;2023-05-01T07:55:05;100495.53;;;12.79;47.59
19114;BME280;9689;51.052;13.772;2023-05-01T08:00:06;100499.66;;;12.87;45.84
19114;BME280;9689;51.052;13.772;2023-05-01T08:05:16;100494.75;;;13.08;45.50
19114;BME280;9689;51.052;13.772;2023-05-01T08:10:18;100492.50;;;13.26;43.30
19114;BME280;9689;51.052;13.772;2023-05-01T08:15:19;100492.84;;;13.45;43.20
19114;BME280;9689;51.052;13.772;2023-05-01T08:20:20;100475.50;;;13.71;43.29
19114;BME280;9689;51.052;13.772;2023-05-01T08:25:23;100489.69;;;13.93;41.08
19114;BME280;9689;51.052;13.772;2023-05-01T08:30:23;100494.75;;;13.99;40.81
19114;BME280;9689;51.052;13.772;2023-05-01T08:35:24;100484.16;;;14.02;41.28
19114;BME280;9689;51.052;13.772;2023-05-01T08:40:30;100494.84;;;14.23;40.64
19114;BME280;9689;51.052;13.772;2023-05-01T08:45:32;100485.00;;;14.57;40.21
19114;BME280;9689;51.052;13.772;2023-05-01T08:50:37;100472.72;;;14.84;39.82
19114;BME280;9689;51.052;13.772;2023-05-01T08:55:43;100468.03;;;15.17;40.33
19114;BME280;9689;51.052;13.772;2023-05-01T09:00:44;100469.72;;;15.43;37.86
19114;BME280;9689;51.052;13.772;2023-05-01T09:05:46;100462.19;;;15.58;38.18
19114;BME280;9689;51.052;13.772;2023-05-01T09:10:51;100446.94;;;15.67;38.76
19114;BME280;9689;51.052;13.772;2023-05-01T09:15:53;100447.56;;;15.74;38.17
19114;BME280;9689;51.052;13.772;2023-05-01T09:20:54;100446.38;;;15.81;37.93
19114;BME280;9689;51.052;13.772;2023-05-01T09:25:56;100434.59;;;15.69;38.00
19114;BME280;9689;51.052;13.772;2023-05-01T09:30:59;100433.22;;;15.82;37.58
19114;BME280;9689;51.052;13.772;2023-05-01T09:36:00;100417.66;;;15.98;37.22
19114;BME280;9689;51.052;13.772;2023-05-01T09:41:04;100413.03;;;16.05;36.76
19114;BME280;9689;51.052;13.772;2023-05-01T09:46:06;100407.31;;;16.16;37.79
19114;BME280;9689;51.052;13.772;2023-05-01T09:51:19;100402.66;;;16.02;37.21
19114;BME280;9689;51.052;13.772;2023-05-01T09:56:22;100396.41;;;16.04;37.43
19114;BME280;9689;51.052;13.772;2023-05-01T10:01:37;100392.16;;;16.22;36.32
19114;BME280;9689;51.052;13.772;2023-05-01T10:06:39;100377.50;;;16.37;35.94
19114;BME280;9689;51.052;13.772;2023-05-01T10:11:48;100369.13;;;16.70;36.45
19114;BME280;9689;51.052;13.772;2023-05-01T10:16:50;100364.97;;;17.03;34.31
19114;BME280;9689;51.052;13.772;2023-05-01T10:21:52;100353.59;;;17.21;34.83
19114;BME280;9689;51.052;13.772;2023-05-01T10:26:54;100348.16;;;17.24;35.38
19114;BME280;9689;51.052;13.772;2023-05-01T10:31:56;100338.03;;;17.53;34.45
19114;BME280;9689;51.052;13.772;2023-05-01T10:36:59;100335.88;;;17.61;32.44
19114;BME280;9689;51.052;13.772;2023-05-01T10:42:05;100335.16;;;17.76;34.38
19114;BME280;9689;51.052;13.772;2023-05-01T10:47:43;100330.69;;;17.96;32.50
19114;BME280;9689;51.052;13.772;2023-05-01T10:53:15;100320.47;;;17.90;32.84
19114;BME280;9689;51.052;13.772;2023-05-01T10:58:54;100299.50;;;18.21;33.26
19114;BME280;9689;51.052;13.772;2023-05-01T11:03:56;100301.53;;;18.49;32.13
19114;BME280;9689;51.052;13.772;2023-05-01T11:08:57;100280.50;;;18.65;31.49
19114;BME280;9689;51.052;13.772;2023-05-01T11:13:59;100272.00;;;18.43;31.76
19114;BME280;9689;51.052;13.772;2023-05-01T11:19:00;100263.91;;;19.10;31.43
19114;BME280;9689;51.052;13.772;2023-05-01T11:24:01;100249.88;;;19.10;29.65
19114;BME280;9689;51.052;13.772;2023-05-01T11:29:04;100244.03;;;19.81;30.54
19114;BME280;9689;51.052;13.772;2023-05-01T11:34:05;100232.75;;;19.93;29.93
19114;BME280;9689;51.052;13.772;2023-05-01T11:39:13;100234.91;;;19.86;30.57
19114;BME280;9689;51.052;13.772;2023-05-01T11:44:16;100227.25;;;19.96;30.21
19114;BME280;9689;51.052;13.772;2023-05-01T11:49:25;100209.88;;;20.06;29.77
19114;BME280;9689;51.052;13.772;2023-05-01T11:54:27;100204.56;;;19.77;30.93
19114;BME280;9689;51.052;13.772;2023-05-01T11:59:29;100189.00;;;19.73;30.15
19114;BME280;9689;51.052;13.772;2023-05-01T12:04:30;100175.78;;;19.73;30.35
19114;BME280;9689;51.052;13.772;2023-05-01T12:09:31;100157.03;;;19.62;31.15
19114;BME280;9689;51.052;13.772;2023-05-01T12:14:34;100160.47;;;20.35;30.74
19114;BME280;9689;51.052;13.772;2023-05-01T12:19:35;100147.94;;;20.80;29.68
19114;BME280;9689;51.052;13.772;2023-05-01T12:24:50;100141.53;;;20.70;28.64
19114;BME280;9689;51.052;13.772;2023-05-01T12:29:53;100132.28;;;20.63;28.03
19114;BME280;9689;51.052;13.772;2023-05-01T12:34:54;100120.16;;;20.58;27.75
19114;BME280;9689;51.052;13.772;2023-05-01T12:39:56;100122.03;;;20.44;27.65
19114;BME280;9689;51.052;13.772;2023-05-01T12:44:59;100114.50;;;20.65;27.03
19114;BME280;9689;51.052;13.772;2023-05-01T12:50:01;100110.84;;;20.53;26.67
19114;BME280;9689;51.052;13.772;2023-05-01T12:55:02;100100.22;;;20.94;26.01
19114;BME280;9689;51.052;13.772;2023-05-01T13:00:06;100097.22;;;20.86;26.52
19114;BME280;9689;51.052;13.772;2023-05-01T13:05:10;100081.63;;;21.21;25.75
19114;BME280;9689;51.052;13.772;2023-05-01T13:10:12;100079.09;;;21.32;25.09
19114;BME280;9689;51.052;13.772;2023-05-01T13:15:20;100071.69;;;21.37;25.35
19114;BME280;9689;51.052;13.772;2023-05-01T13:20:25;100066.34;;;21.25;25.53
19114;BME280;9689;51.052;13.772;2023-05-01T13:25:26;100078.41;;;21.03;25.85
19114;BME280;9689;51.052;13.772;2023-05-01T13:30:32;100070.84;;;21.50;24.99
19114;BME280;9689;51.052;13.772;2023-05-01T13:35:33;100063.63;;;21.77;24.89
19114;BME280;9689;51.052;13.772;2023-05-01T13:40:34;100055.34;;;21.69;23.38
19114;BME280;9689;51.052;13.772;2023-05-01T13:45:36;100054.41;;;21.32;23.80
19114;BME280;9689;51.052;13.772;2023-05-01T13:50:37;100054.78;;;21.26;24.25
19114;BME280;9689;51.052;13.772;2023-05-01T13:55:41;100048.75;;;20.71;25.85
19114;BME280;9689;51.052;13.772;2023-05-01T14:00:44;100045.31;;;20.96;24.65
19114;BME280;9689;51.052;13.772;2023-05-01T14:05:46;100034.09;;;21.05;24.22
19114;BME280;9689;51.052;13.772;2023-05-01T14:10:48;100028.69;;;21.07;24.87
19114;BME280;9689;51.052;13.772;2023-05-01T14:15:50;100021.47;;;21.09;25.29
19114;BME280;9689;51.052;13.772;2023-05-01T14:20:51;100010.91;;;21.22;25.28
19114;BME280;9689;51.052;13.772;2023-05-01T14:25:52;100008.19;;;20.83;25.76
19114;BME280;9689;51.052;13.772;2023-05-01T14:30:55;100007.44;;;20.81;25.90
19114;BME280;9689;51.052;13.772;2023-05-01T14:35:56;99988.44;;;21.14;26.30
19114;BME280;9689;51.052;13.772;2023-05-01T14:40:56;99983.22;;;21.13;25.62
19114;BME280;9689;51.052;13.772;2023-05-01T14:45:58;99980.03;;;21.08;26.60
19114;BME280;9689;51.052;13.772;2023-05-01T14:50:59;99984.56;;;20.93;26.88
19114;BME280;9689;51.052;13.772;2023-05-01T14:56:00;100000.28;;;20.56;28.38
19114;BME280;9689;51.052;13.772;2023-05-01T15:01:03;99992.22;;;20.45;28.01
19114;BME280;9689;51.052;13.772;2023-05-01T15:06:04;99993.56;;;20.24;28.83
19114;BME280;9689;51.052;13.772;2023-05-01T15:11:04;99991.72;;;20.39;29.11
19114;BME280;9689;51.052;13.772;2023-05-01T15:16:08;99992.06;;;20.34;28.96
19114;BME280;9689;51.052;13.772;2023-05-01T15:21:09;99988.00;;;20.55;28.96
19114;BME280;9689;51.052;13.772;2023-05-01T15:26:10;99993.63;;;20.51;30.80
19114;BME280;9689;51.052;13.772;2023-05-01T15:31:12;99983.59;;;20.42;30.26
19114;BME280;9689;51.052;13.772;2023-05-01T15:36:13;99985.59;;;20.65;31.32
19114;BME280;9689;51.052;13.772;2023-05-01T15:41:14;99979.56;;;20.63;32.19
19114;BME280;9689;51.052;13.772;2023-05-01T15:46:18;99978.50;;;20.39;35.85
19114;BME280;9689;51.052;13.772;2023-05-01T15:51:22;99980.41;;;20.37;34.90
19114;BME280;9689;51.052;13.772;2023-05-01T15:56:22;99967.91;;;20.12;33.71
19114;BME280;9689;51.052;13.772;2023-05-01T16:01:24;99964.03;;;19.90;32.35
19114;BME280;9689;51.052;13.772;2023-05-01T16:06:25;99961.78;;;19.70;32.96
19114;BME280;9689;51.052;13.772;2023-05-01T16:11:29;99968.19;;;19.52;34.70
19114;BME280;9689;51.052;13.772;2023-05-01T16:16:32;99972.75;;;19.64;33.86
19114;BME280;9689;51.052;13.772;2023-05-01T16:21:35;99965.28;;;19.13;33.78
19114;BME280;9689;51.052;13.772;2023-05-01T16:26:36;99973.28;;;19.12;35.02
19114;BME280;9689;51.052;13.772;2023-05-01T16:31:42;99963.91;;;18.92;33.95
19114;BME280;9689;51.052;13.772;2023-05-01T16:36:45;99969.09;;;18.93;35.33
19114;BME280;9689;51.052;13.772;2023-05-01T16:41:48;99964.06;;;18.75;35.58
19114;BME280;9689;51.052;13.772;2023-05-01T16:46:52;99970.13;;;18.77;36.81
19114;BME280;9689;51.052;13.772;2023-05-01T16:51:54;99962.91;;;18.49;35.78
19114;BME280;9689;51.052;13.772;2023-05-01T16:56:57;99968.84;;;18.22;36.95
19114;BME280;9689;51.052;13.772;2023-05-01T17:01:59;99958.06;;;18.11;36.53
19114;BME280;9689;51.052;13.772;2023-05-01T17:07:00;99965.56;;;18.03;37.38
19114;BME280;9689;51.052;13.772;2023-05-01T17:12:00;99969.22;;;18.00;38.26
19114;BME280;9689;51.052;13.772;2023-05-01T17:17:03;99970.50;;;17.93;38.80
19114;BME280;9689;51.052;13.772;2023-05-01T17:22:08;99972.50;;;17.88;38.07
19114;BME280;9689;51.052;13.772;2023-05-01T17:27:08;99975.41;;;17.84;39.61
19114;BME280;9689;51.052;13.772;2023-05-01T17:32:12;99969.34;;;17.66;39.40
19114;BME280;9689;51.052;13.772;2023-05-01T17:37:27;99977.47;;;17.61;39.81
19114;BME280;9689;51.052;13.772;2023-05-01T17:42:28;99970.25;;;17.49;38.92
19114;BME280;9689;51.052;13.772;2023-05-01T17:47:30;99967.84;;;17.44;38.22
19114;BME280;9689;51.052;13.772;2023-05-01T17:52:31;99969.19;;;17.36;39.07
19114;BME280;9689;51.052;13.772;2023-05-01T17:57:32;99973.97;;;17.29;39.99
19114;BME280;9689;51.052;13.772;2023-05-01T18:02:34;99973.34;;;17.24;38.50
19114;BME280;9689;51.052;13.772;2023-05-01T18:07:35;99969.63;;;17.11;40.51
19114;BME280;9689;51.052;13.772;2023-05-01T18:12:36;99972.16;;;16.97;39.42
19114;BME280;9689;51.052;13.772;2023-05-01T18:17:38;99972.47;;;16.90;40.33
19114;BME280;9689;51.052;13.772;2023-05-01T18:22:39;99971.38;;;16.94;39.59
19114;BME280;9689;51.052;13.772;2023-05-01T18:27:40;99968.97;;;16.90;40.07
19114;BME280;9689;51.052;13.772;2023-05-01T18:32:42;99979.50;;;16.90;40.96
19114;BME280;9689;51.052;13.772;2023-05-01T18:37:47;99981.84;;;16.79;41.35
19114;BME280;9689;51.052;13.772;2023-05-01T18:42:49;99991.13;;;16.86;40.16
19114;BME280;9689;51.052;13.772;2023-05-01T18:47:52;99989.38;;;16.67;41.00
19114;BME280;9689;51.052;13.772;2023-05-01T18:52:53;99987.16;;;16.60;41.19
19114;BME280;9689;51.052;13.772;2023-05-01T18:57:54;99989.81;;;16.58;42.28
19114;BME280;9689;51.052;13.772;2023-05-01T19:02:56;99994.03;;;16.62;42.09
19114;BME280;9689;51.052;13.772;2023-05-01T19:07:57;99994.31;;;16.56;43.57
19114;BME280;9689;51.052;13.772;2023-05-01T19:13:04;100001.75;;;16.48;44.69
19114;BME280;9689;51.052;13.772;2023-05-01T19:18:07;100009.16;;;16.40;44.44
19114;BME280;9689;51.052;13.772;2023-05-01T19:23:08;100000.94;;;16.29;45.29
19114;BME280;9689;51.052;13.772;2023-05-01T19:28:08;100007.59;;;16.36;44.43
19114;BME280;9689;51.052;13.772;2023-05-01T19:33:10;100007.13;;;16.28;44.57
19114;BME280;9689;51.052;13.772;2023-05-01T19:38:11;100006.47;;;16.23;44.84
19114;BME280;9689;51.052;13.772;2023-05-01T19:43:12;100008.41;;;16.19;45.31
19114;BME280;9689;51.052;13.772;2023-05-01T19:48:14;100018.97;;;16.00;45.78
19114;BME280;9689;51.052;13.772;2023-05-01T19:53:15;100018.38;;;15.94;46.18
19114;BME280;9689;51.052;13.772;2023-05-01T19:58:16;100021.63;;;15.80;47.55
19114;BME280;9689;51.052;13.772;2023-05-01T20:03:18;100013.63;;;15.64;48.39
19114;BME280;9689;51.052;13.772;2023-05-01T20:08:19;100021.88;;;15.16;52.92
19114;BME280;9689;51.052;13.772;2023-05-01T20:13:20;100031.25;;;14.59;54.50
19114;BME280;9689;51.052;13.772;2023-05-01T20:18:22;100034.69;;;13.70;58.84
19114;BME280;9689;51.052;13.772;2023-05-01T20:23:23;100039.94;;;13.47;65.35
19114;BME280;9689;51.052;13.772;2023-05-01T20:28:24;100042.22;;;13.31;67.94
19114;BME280;9689;51.052;13.772;2023-05-01T20:33:26;100054.28;;;13.35;71.78
19114;BME280;9689;51.052;13.772;2023-05-01T20:38:27;100056.56;;;13.21;74.20
19114;BME280;9689;51.052;13.772;2023-05-01T20:43:28;100066.69;;;13.30;74.85
19114;BME280;9689;51.052;13.772;2023-05-01T20:48:30;100095.38;;;13.33;76.35
19114;BME280;9689;51.052;13.772;2023-05-01T20:53:31;100111.78;;;13.38;73.70
19114;BME280;9689;51.052;13.772;2023-05-01T20:58:32;100113.75;;;13.32;69.88
19114;BME280;9689;51.052;13.772;2023-05-01T21:03:34;100110.34;;;13.28;67.22
19114;BME280;9689;51.052;13.772;2023-05-01T21:08:35;100116.25;;;13.35;66.40
19114;BME280;9689;51.052;13.772;2023-05-01T21:13:35;100120.50;;;13.39;66.16
19114;BME280;9689;51.052;13.772;2023-05-01T21:18:38;100132.16;;;13.53;65.38
19114;BME280;9689;51.052;13.772;2023-05-01T21:23:44;100134.69;;;13.56;65.42
19114;BME280;9689;51.052;13.772;2023-05-01T21:28:45;100152.97;;;13.58;65.22
19114;BME280;9689;51.052;13.772;2023-05-01T21:33:47;100145.97;;;13.58;65.16
19114;BME280;9689;51.052;13.772;2023-05-01T21:38:48;100155.47;;;13.61;64.37
19114;BME280;9689;51.052;13.772;2023-05-01T21:43:49;100145.97;;;13.58;64.78
19114;BME280;9689;51.052;13.772;2023-05-01T21:48:51;100138.22;;;13.55;64.95
19114;BME280;9689;51.052;13.772;2023-05-01T21:53:51;100142.44;;;13.60;63.54
19114;BME280;9689;51.052;13.772;2023-05-01T21:58:58;100152.13;;;13.57;63.80
19114;BME280;9689;51.052;13.772;2023-05-01T22:04:01;100150.56;;;13.52;63.38
19114;BME280;9689;51.052;13.772;2023-05-01T22:09:02;100150.56;;;13.52;63.90
19114;BME280;9689;51.052;13.772;2023-05-01T22:14:03;100160.06;;;13.54;62.42
19114;BME280;9689;51.052;13.772;2023-05-01T22:19:05;100163.91;;;13.44;62.65
19114;BME280;9689;51.052;13.772;2023-05-01T22:24:06;100170.25;;;13.37;63.11
19114;BME280;9689;51.052;13.772;2023-05-01T22:29:06;100167.78;;;13.33;63.66
19114;BME280;9689;51.052;13.772;2023-05-01T22:34:08;100172.31;;;13.27;64.07
19114;BME280;9689;51.052;13.772;2023-05-01T22:39:09;100165.16;;;13.06;65.64
19114;BME280;9689;51.052;13.772;2023-05-01T22:44:10;100177.63;;;12.98;65.27
19114;BME280;9689;51.052;13.772;2023-05-01T22:49:12;100177.97;;;12.87;66.26
19114;BME280;9689;51.052;13.772;2023-05-01T22:54:13;100181.50;;;12.85;66.90
19114;BME280;9689;51.052;13.772;2023-05-01T22:59:14;100176.94;;;12.91;68.44
19114;BME280;9689;51.052;13.772;2023-05-01T23:04:16;100174.28;;;12.93;70.25
19114;BME280;9689;51.052;13.772;2023-05-01T23:09:17;100186.38;;;12.97;70.64
19114;BME280;9689;51.052;13.772;2023-05-01T23:14:18;100204.63;;;12.98;70.47
19114;BME280;9689;51.052;13.772;2023-05-01T23:19:21;100199.91;;;13.10;67.64
19114;BME280;9689;51.052;13.772;2023-05-01T23:24:21;100203.44;;;13.09;66.75
19114;BME280;9689;51.052;13.772;2023-05-01T23:29:23;100201.59;;;13.12;65.54
19114;BME280;9689;51.052;13.772;2023-05-01T23:34:27;100205.06;;;13.13;64.97
19114;BME280;9689;51.052;13.772;2023-05-01T23:39:27;100204.03;;;13.17;64.76
19114;BME280;9689;51.052;13.772;2023-05-01T23:44:28;100198.00;;;13.15;64.58
19114;BME280;9689;51.052;13.772;2023-05-01T23:49:30;100194.47;;;13.16;65.34
19114;BME280;9689;51.052;13.772;2023-05-01T23:54:31;100192.56;;;13.22;67.37
19114;BME280;9689;51.052;13.772;2023-05-01T23:59:32;100191.94;;;13.14;64.31
